KRID

Richmond Municipal Airport

Richmond, Indiana, USA
METAR KRID 202355Z AUTO 16006KT 10SM CLR 23/23 A2990 RMK AO2
Observed Flight Rules
Aug-20 @ 23:55 UTC (12 minutes ago) Visual Flight Rules
Wind Visibility Clouds
160° at 6 knots 10 miles
  • Clear skies
Temperatures Readings
Current 23°C / 73°F
Dewpoint 23°C / 73°F
Humidity 100%
Altimeter 29.9" Hg
Pressure 1013 hPa
Elevation 348
METAR KRID 202355Z AUTO 16006KT 10SM CLR 23/23 A2990 RMK AO2
Observed Flight Rules
Aug-20 @ 23:55 UTC
(12 minutes ago)
VFR
Wind Visibility
160° at 6 knots 10 miles
Clouds
  • Clear skies
Temperature Dewpoint
23°C / 73°F 23°C / 73°F
Humidity Altimeter Pressure
100% 29.9" Hg 1013 hPa